Time;durP1;ratioP1;P1;durP2;ratioP2;P2;SDS_P1;SDS_P2;PMS_P1;PMS_P2;Temp;Humidity;BMP_temperature;BMP_pressure;BME280_temperature;BME280_humidity;BME280_pressure;Samples;Min_cycle;Max_cycle;Signal;HPM_P1;HPM_P2
2023/10/30 00:02:00;;;;;;;0.00;0.00;;;;;;;8.74;100.00;97985.72;4919039;28;20086;-78
2023/10/30 00:04:25;;;;;;;0.00;0.00;;;;;;;8.82;100.00;97986.88;4919934;28;20032;-80
2023/10/30 00:06:51;;;;;;;0.00;0.00;;;;;;;9.17;100.00;98017.81;4919593;28;20496;-78
2023/10/30 00:09:17;;;;;;;0.00;0.00;;;;;;;9.26;100.00;98012.38;4909200;28;20043;-79
2023/10/30 00:11:43;;;;;;;0.00;0.00;;;;;;;9.15;100.00;97995.50;4907922;28;20088;-78
2023/10/30 00:14:08;;;;;;;0.00;0.00;;;;;;;9.18;100.00;97994.84;4920302;29;20062;-79
2023/10/30 00:16:33;;;;;;;0.00;0.00;;;;;;;9.28;100.00;98018.31;4899550;28;20062;-76
2023/10/30 00:19:02;;;;;;;0.00;0.00;;;;;;;9.24;100.00;98009.97;4925012;28;20114;-79
2023/10/30 00:21:28;;;;;;;0.00;0.00;;;;;;;9.26;100.00;98007.72;4926419;28;20129;-80
2023/10/30 00:23:53;;;;;;;0.00;0.00;;;;;;;9.30;100.00;98020.72;4917121;28;20102;-79
2023/10/30 00:26:19;;;;;;;0.00;0.00;;;;;;;9.41;100.00;98024.78;4906274;29;20074;-79
2023/10/30 00:28:44;;;;;;;0.00;0.00;;;;;;;9.55;100.00;98028.19;4926803;28;20417;-77
2023/10/30 00:31:14;;;;;;;0.00;0.00;;;;;;;9.66;100.00;98030.63;4915399;28;20031;-77
2023/10/30 00:33:40;;;;;;;0.00;0.00;;;;;;;9.75;100.00;98024.06;4944115;28;20042;-77
2023/10/30 00:36:08;;;;;;;0.00;0.00;;;;;;;9.88;100.00;98044.13;4924678;28;20085;-77
2023/10/30 00:38:33;;;;;;;0.00;0.00;;;;;;;9.74;100.00;98027.09;4923086;29;20070;-77
2023/10/30 00:40:59;;;;;;;0.00;0.00;;;;;;;9.83;100.00;98049.75;4890717;28;20375;-76
2023/10/30 00:43:25;;;;;;;0.00;0.00;;;;;;;9.64;100.00;98028.19;4912945;29;20066;-78
2023/10/30 00:45:51;;;;;;;0.00;0.00;;;;;;;9.67;100.00;98043.16;4917874;28;20027;-77
2023/10/30 00:48:17;;;;;;;0.00;0.00;;;;;;;9.63;100.00;98047.63;4933902;28;20031;-76
2023/10/30 00:50:42;;;;;;;0.00;0.00;;;;;;;9.64;100.00;98049.22;4926761;28;20405;-77
2023/10/30 00:53:08;;;;;;;0.00;0.00;;;;;;;9.68;100.00;98055.66;4919478;28;20118;-77
2023/10/30 00:55:44;;;;;;;0.00;0.00;;;;;;;9.52;100.00;98052.56;4941025;28;20028;-77
2023/10/30 00:58:10;;;;;;;0.00;0.00;;;;;;;9.57;100.00;98064.13;4924190;28;20035;-77
2023/10/30 01:00:35;;;;;;;0.00;0.00;;;;;;;9.55;100.00;98063.66;4930145;29;20067;-78
2023/10/30 01:03:00;;;;;;;0.00;0.00;;;;;;;9.57;100.00;98058.69;4901131;28;20680;-77
2023/10/30 01:05:26;;;;;;;0.00;0.00;;;;;;;9.52;100.00;98055.28;4905850;29;20117;-79
2023/10/30 01:07:54;;;;;;;0.00;0.00;;;;;;;9.60;100.00;98065.44;4915603;29;20027;-80
2023/10/30 01:10:19;;;;;;;0.00;0.00;;;;;;;9.41;100.00;98046.59;4910495;28;20027;-77
2023/10/30 01:12:45;;;;;;;0.00;0.00;;;;;;;9.63;100.00;98081.16;4908521;29;20386;-78
2023/10/30 01:15:28;;;;;;;0.00;0.00;;;;;;;9.55;100.00;98060.94;4933168;28;20151;-80
2023/10/30 01:18:03;;;;;;;;;;;;;;;;;;;;;
2023/10/30 01:20:31;;;;;;;0.00;0.00;;;;;;;9.43;100.00;98049.81;4941521;28;21076;-78
2023/10/30 01:22:57;;;;;;;0.00;0.00;;;;;;;9.50;100.00;98069.25;4915772;29;20055;-77
2023/10/30 01:25:22;;;;;;;0.00;0.00;;;;;;;9.36;100.00;98050.28;4907889;28;20035;-77
2023/10/30 01:27:48;;;;;;;0.00;0.00;;;;;;;9.33;100.00;98055.53;4916717;28;20032;-77
2023/10/30 01:30:43;;;;;;;;;;;;;;;;;;;;;
2023/10/30 01:33:12;;;;;;;0.00;0.00;;;;;;;9.32;100.00;98056.69;4935718;28;20109;-76
2023/10/30 01:35:37;;;;;;;0.00;0.00;;;;;;;9.32;100.00;98041.13;4926109;28;20019;-77
2023/10/30 01:38:03;;;;;;;0.00;0.00;;;;;;;9.59;100.00;98072.81;4930275;28;20373;-77
2023/10/30 01:40:28;;;;;;;0.00;0.00;;;;;;;9.58;100.00;98068.47;4889785;28;20457;-77
2023/10/30 01:42:54;;;;;;;0.00;0.00;;;;;;;9.54;100.00;98050.34;4923581;28;20035;-77
2023/10/30 01:45:19;;;;;;;0.00;0.00;;;;;;;9.66;100.00;98057.91;4940797;28;20035;-77
2023/10/30 01:47:45;;;;;;;0.00;0.00;;;;;;;9.63;100.00;98055.81;4897509;28;20114;-79
2023/10/30 01:50:13;;;;;;;0.00;0.00;;;;;;;9.66;100.00;98068.81;4898020;29;20467;-77
2023/10/30 01:52:38;;;;;;;0.00;0.00;;;;;;;9.74;100.00;98076.22;4929774;28;20024;-78
2023/10/30 01:55:05;;;;;;;0.08;0.08;;;;;;;9.47;100.00;98056.25;4907221;28;20034;-79
2023/10/30 01:57:32;;;;;;;0.00;0.00;;;;;;;9.44;100.00;98051.41;4915155;28;20130;-78
2023/10/30 02:00:00;;;;;;;0.00;0.00;;;;;;;9.52;100.00;98080.66;4944323;28;20025;-78
2023/10/30 02:02:37;;;;;;;0.00;0.00;;;;;;;9.29;100.00;98060.84;4947479;28;20031;-78
2023/10/30 02:05:04;;;;;;;0.00;0.00;;;;;;;9.23;100.00;98068.34;4922866;28;20063;-76
2023/10/30 02:07:30;;;;;;;0.00;0.00;;;;;;;9.03;100.00;98036.19;4916460;29;20624;-77
2023/10/30 02:09:58;;;;;;;0.00;0.00;;;;;;;9.03;100.00;98036.19;4921660;28;20070;-76
2023/10/30 02:12:32;;;;;;;0.00;0.00;;;;;;;9.15;100.00;98063.66;4949016;28;20448;-76
2023/10/30 02:15:00;;;;;;;0.00;0.00;;;;;;;8.95;100.00;98056.03;4931205;28;20043;-75
2023/10/30 02:17:25;;;;;;;0.00;0.00;;;;;;;8.76;100.00;98048.91;4936103;28;20075;-77
2023/10/30 02:19:53;;;;;;;0.00;0.00;;;;;;;8.69;100.00;98053.97;4939042;28;20062;-76
2023/10/30 02:22:20;;;;;;;0.00;0.00;;;;;;;8.71;100.00;98074.34;4916266;28;20023;-77
2023/10/30 02:24:46;;;;;;;0.00;0.00;;;;;;;8.58;100.00;98071.69;4936305;29;20027;-77
2023/10/30 02:27:11;;;;;;;0.00;0.00;;;;;;;8.43;100.00;98056.50;4939610;28;20023;-76
2023/10/30 02:29:37;;;;;;;0.00;0.00;;;;;;;8.57;100.00;98073.59;4913950;28;20022;-75
2023/10/30 02:32:05;;;;;;;0.00;0.00;;;;;;;8.37;100.00;98055.81;4938092;28;20038;-75
2023/10/30 02:34:32;;;;;;;0.00;0.00;;;;;;;8.45;100.00;98082.31;4932102;28;20099;-75
2023/10/30 02:36:58;;;;;;;0.00;0.00;;;;;;;8.33;100.00;98068.44;4934761;28;20034;-76
2023/10/30 02:39:23;;;;;;;0.00;0.00;;;;;;;8.46;100.00;98088.59;4927850;28;20083;-74
2023/10/30 02:41:49;;;;;;;0.00;0.00;;;;;;;8.32;100.00;98083.16;4934172;29;20051;-77
2023/10/30 02:44:15;;;;;;;0.00;0.00;;;;;;;8.42;100.00;98082.91;4911956;28;20031;-76
2023/10/30 02:46:40;;;;;;;0.00;0.00;;;;;;;8.32;100.00;98061.38;4918953;28;20497;-77
2023/10/30 02:49:06;;;;;;;0.00;0.00;;;;;;;8.44;100.00;98075.28;4921067;28;20512;-77
2023/10/30 02:51:31;;;;;;;0.00;0.00;;;;;;;8.32;100.00;98056.75;4930582;28;20106;-79
2023/10/30 02:53:57;;;;;;;0.00;0.00;;;;;;;8.58;100.00;98079.88;4920792;28;20078;-76
2023/10/30 02:56:22;;;;;;;0.00;0.00;;;;;;;8.45;100.00;98055.09;4925899;29;20019;-78
2023/10/30 02:58:50;;;;;;;0.00;0.00;;;;;;;8.70;100.00;98080.09;4932887;29;20086;-74
2023/10/30 03:01:17;;;;;;;0.00;0.00;;;;;;;8.56;100.00;98051.00;4913701;28;20430;-75
2023/10/30 03:03:45;;;;;;;0.00;0.00;;;;;;;8.76;100.00;98076.16;4918561;29;20082;-77
2023/10/30 03:06:10;;;;;;;0.00;0.00;;;;;;;8.66;100.00;98060.03;4927412;28;20031;-76
2023/10/30 03:08:36;;;;;;;0.00;0.00;;;;;;;8.67;100.00;98067.09;4934716;28;20079;-75
2023/10/30 03:11:04;;;;;;;0.00;0.00;;;;;;;8.79;100.00;98075.53;4925210;28;20039;-76
2023/10/30 03:13:32;;;;;;;0.00;0.00;;;;;;;8.56;100.00;98033.88;4943885;28;20041;-76
2023/10/30 03:15:57;;;;;;;0.00;0.00;;;;;;;8.78;100.00;98071.19;4926347;29;20498;-77
2023/10/30 03:18:26;;;;;;;0.00;0.00;;;;;;;8.80;100.00;98063.47;4919013;28;20055;-76
2023/10/30 03:20:51;;;;;;;0.00;0.00;;;;;;;8.78;100.00;98063.00;4924201;28;20031;-75
2023/10/30 03:23:20;;;;;;;0.00;0.00;;;;;;;8.71;100.00;98040.84;4915385;28;20035;-77
2023/10/30 03:25:54;;;;;;;0.00;0.00;;;;;;;8.70;100.00;98045.50;4916086;28;20019;-77
2023/10/30 03:28:22;;;;;;;0.00;0.00;;;;;;;8.83;100.00;98071.03;4913274;28;20046;-77
2023/10/30 03:30:47;;;;;;;0.00;0.00;;;;;;;8.66;100.00;98043.69;4913745;29;20111;-76
2023/10/30 03:33:13;;;;;;;0.00;0.00;;;;;;;8.74;100.00;98045.66;4898118;28;20089;-76
2023/10/30 03:35:39;;;;;;;0.00;0.00;;;;;;;8.81;100.00;98051.47;4927530;28;20074;-76
2023/10/30 03:38:05;;;;;;;0.00;0.00;;;;;;;9.00;100.00;98072.25;4921765;29;20436;-75
2023/10/30 03:40:31;;;;;;;0.00;0.00;;;;;;;8.97;100.00;98070.97;4932103;28;20034;-75
2023/10/30 03:42:56;;;;;;;0.00;0.00;;;;;;;8.79;100.00;98059.16;4895772;29;20019;-77
2023/10/30 03:45:22;;;;;;;0.00;0.00;;;;;;;8.56;100.00;98044.75;4940789;28;21165;-76
2023/10/30 03:47:47;;;;;;;0.00;0.00;;;;;;;8.47;100.00;98055.59;4941785;29;20031;-76
2023/10/30 03:50:13;;;;;;;0.00;0.00;;;;;;;8.33;100.00;98052.09;4923648;28;20042;-76
2023/10/30 03:52:40;;;;;;;0.00;0.00;;;;;;;8.15;100.00;98040.28;4922686;28;20102;-76
2023/10/30 03:55:06;;;;;;;0.00;0.00;;;;;;;8.14;100.00;98061.25;4946593;28;20035;-77
2023/10/30 03:57:31;;;;;;;0.00;0.00;;;;;;;8.03;100.00;98054.41;4920324;28;20043;-76
2023/10/30 03:59:57;;;;;;;0.00;0.00;;;;;;;7.93;100.00;98054.66;4931754;28;20027;-77
2023/10/30 04:02:22;;;;;;;0.00;0.00;;;;;;;7.85;100.00;98046.09;4924356;28;20031;-77
2023/10/30 04:04:51;;;;;;;0.00;0.00;;;;;;;7.84;100.00;98049.94;4932032;28;20019;-76
2023/10/30 04:07:17;;;;;;;0.00;0.00;;;;;;;7.87;100.00;98062.13;4930421;28;20031;-76
2023/10/30 04:09:54;;;;;;;0.00;0.00;;;;;;;7.84;100.00;98057.28;4910286;28;20832;-77
2023/10/30 04:12:20;;;;;;;0.00;0.00;;;;;;;7.92;100.00;98081.06;4923535;28;20094;-76
2023/10/30 04:14:55;;;;;;;0.00;0.00;;;;;;;7.76;100.00;98075.16;4924901;29;20278;-77
2023/10/30 04:17:20;;;;;;;0.00;0.00;;;;;;;7.77;100.00;98076.75;4930040;28;20101;-77
2023/10/30 04:19:49;;;;;;;0.00;0.00;;;;;;;7.70;100.00;98073.66;4927684;28;20039;-76
2023/10/30 04:22:14;;;;;;;0.00;0.00;;;;;;;7.52;100.00;98050.91;4924414;29;20034;-76
2023/10/30 04:24:39;;;;;;;0.00;0.00;;;;;;;7.71;100.00;98085.31;4909580;28;20035;-76
2023/10/30 04:27:05;;;;;;;0.00;0.00;;;;;;;7.62;100.00;98086.06;4901285;29;20055;-76
2023/10/30 04:29:31;;;;;;;0.00;0.00;;;;;;;7.62;100.00;98077.06;4926887;28;20114;-76
2023/10/30 04:31:56;;;;;;;0.00;0.00;;;;;;;7.61;100.00;98073.56;4899452;28;20027;-76
2023/10/30 04:34:22;;;;;;;0.00;0.00;;;;;;;7.68;100.00;98092.16;4932097;29;20533;-75
2023/10/30 04:36:47;;;;;;;0.00;0.00;;;;;;;7.66;100.00;98088.97;4942895;28;20027;-75
2023/10/30 04:39:13;;;;;;;0.00;0.00;;;;;;;7.66;100.00;98088.97;4919768;29;20405;-74
2023/10/30 04:41:41;;;;;;;0.00;0.00;;;;;;;7.62;100.00;98083.34;4896220;28;20039;-75
2023/10/30 04:44:07;;;;;;;0.00;0.00;;;;;;;7.68;100.00;98089.44;4914767;28;20043;-74
2023/10/30 04:46:32;;;;;;;0.00;0.00;;;;;;;7.67;100.00;98087.84;4891284;28;20590;-75
2023/10/30 04:48:57;;;;;;;0.00;0.00;;;;;;;7.79;100.00;98109.91;4944114;28;20030;-75
2023/10/30 04:51:26;;;;;;;0.00;0.00;;;;;;;7.77;100.00;98101.25;4911814;28;20043;-75
2023/10/30 04:53:51;;;;;;;0.00;0.00;;;;;;;7.84;100.00;98101.66;4926765;28;20024;-75
2023/10/30 04:56:17;;;;;;;0.00;0.00;;;;;;;7.79;100.00;98090.06;4915667;29;20023;-76
2023/10/30 04:58:42;;;;;;;0.00;0.00;;;;;;;7.87;100.00;98100.25;4910756;28;20120;-75
2023/10/30 05:01:09;;;;;;;0.00;0.00;;;;;;;7.98;100.00;98101.59;4910311;28;20154;-75
2023/10/30 05:03:36;;;;;;;0.00;0.00;;;;;;;7.90;100.00;98085.19;4933057;29;20043;-76
2023/10/30 05:06:07;;;;;;;0.00;0.00;;;;;;;7.88;100.00;98080.06;4922357;28;20032;-77
2023/10/30 05:08:35;;;;;;;0.00;0.00;;;;;;;8.04;100.00;98099.56;4949499;28;20155;-76
2023/10/30 05:11:01;;;;;;;0.00;0.00;;;;;;;7.97;100.00;98085.59;4927981;28;20039;-75
2023/10/30 05:13:37;;;;;;;0.00;0.00;;;;;;;7.93;100.00;98071.78;4937314;28;20081;-77
2023/10/30 05:16:02;;;;;;;0.00;0.00;;;;;;;8.21;100.00;98099.72;4918228;28;20850;-77
2023/10/30 05:18:29;;;;;;;0.00;0.00;;;;;;;8.07;100.00;98079.91;4911836;28;20055;-76
2023/10/30 05:20:55;;;;;;;0.00;0.00;;;;;;;8.24;100.00;98111.13;4926539;28;20063;-76
2023/10/30 05:23:20;;;;;;;0.00;0.00;;;;;;;8.35;100.00;98115.22;4911029;28;20525;-78
2023/10/30 05:25:46;;;;;;;0.00;0.00;;;;;;;8.45;100.00;98114.22;4941088;28;20030;-81
2023/10/30 05:28:16;;;;;;;0.00;0.00;;;;;;;8.44;100.00;98099.81;4925221;28;20023;-79
2023/10/30 05:30:42;;;;;;;0.00;0.00;;;;;;;8.69;100.00;98108.47;4928376;28;20107;-81
2023/10/30 05:33:09;;;;;;;0.00;0.00;;;;;;;8.87;100.00;98114.84;4931285;28;20885;-79
2023/10/30 05:35:35;;;;;;;0.00;0.00;;;;;;;8.87;100.00;98099.28;4924534;29;20020;-79
2023/10/30 05:38:00;;;;;;;0.00;0.00;;;;;;;9.00;100.00;98121.34;4936246;28;20031;-79
2023/10/30 05:40:28;;;;;;;0.00;0.00;;;;;;;9.03;100.00;98112.53;4923872;28;20019;-78
2023/10/30 05:42:53;;;;;;;0.00;0.00;;;;;;;9.03;100.00;98117.97;4927275;28;20444;-79
2023/10/30 05:45:19;;;;;;;0.00;0.00;;;;;;;9.21;100.00;98146.97;4921105;28;20031;-79
2023/10/30 05:47:44;;;;;;;0.00;0.00;;;;;;;9.20;100.00;98148.06;4899333;29;20494;-78
2023/10/30 05:50:10;;;;;;;0.00;0.00;;;;;;;9.16;100.00;98138.91;4912017;28;20106;-79
2023/10/30 05:52:35;;;;;;;0.00;0.00;;;;;;;9.14;100.00;98140.31;4920777;29;20036;-79
2023/10/30 05:55:02;;;;;;;0.00;0.00;;;;;;;9.11;100.00;98135.50;4894084;28;20079;-79
2023/10/30 05:57:27;;;;;;;0.00;0.00;;;;;;;9.03;100.00;98131.59;4938374;28;20026;-79
2023/10/30 05:59:52;;;;;;;0.00;0.00;;;;;;;8.93;100.00;98119.03;4916777;29;20023;-78
2023/10/30 06:02:18;;;;;;;0.00;0.00;;;;;;;8.81;100.00;98114.16;4912126;28;20118;-79
2023/10/30 06:04:43;;;;;;;0.00;0.00;;;;;;;9.00;100.00;98143.13;4934924;28;20405;-79
2023/10/30 06:07:09;;;;;;;0.00;0.00;;;;;;;9.15;100.00;98152.84;4937187;29;20027;-79
2023/10/30 06:09:34;;;;;;;0.00;0.00;;;;;;;9.15;100.00;98137.28;4910119;28;20119;-79
2023/10/30 06:12:00;;;;;;;0.00;0.00;;;;;;;9.20;100.00;98139.88;4916295;29;20031;-77
2023/10/30 06:14:25;;;;;;;0.00;0.00;;;;;;;9.17;100.00;98124.16;4894857;29;20027;-78
2023/10/30 06:16:51;;;;;;;0.00;0.00;;;;;;;9.30;100.00;98127.09;4900914;29;20039;-77
2023/10/30 06:19:18;;;;;;;0.00;0.00;;;;;;;9.25;100.00;98123.38;4899694;28;20037;-78
2023/10/30 06:21:44;;;;;;;0.00;0.00;;;;;;;9.15;100.00;98126.38;4911864;28;20122;-78
2023/10/30 06:24:12;;;;;;;0.00;0.00;;;;;;;8.98;100.00;98129.00;4917644;28;20114;-79
2023/10/30 06:26:43;;;;;;;0.00;0.00;;;;;;;8.81;100.00;98127.78;4930610;28;20110;-78
2023/10/30 06:29:09;;;;;;;0.00;0.00;;;;;;;8.85;100.00;98139.69;4909085;28;20023;-78
2023/10/30 06:31:35;;;;;;;0.00;0.00;;;;;;;8.81;100.00;98152.31;4944903;28;20039;-77
2023/10/30 06:34:01;;;;;;;0.00;0.00;;;;;;;8.69;100.00;98149.34;4929380;28;20034;-77
2023/10/30 06:36:29;;;;;;;0.00;0.00;;;;;;;8.67;100.00;98148.84;4930361;29;20394;-79
2023/10/30 06:38:55;;;;;;;0.00;0.00;;;;;;;8.67;100.00;98154.28;4905983;29;20038;-77
2023/10/30 06:41:21;;;;;;;0.00;0.00;;;;;;;8.60;100.00;98162.06;4935899;28;20027;-79
2023/10/30 06:43:46;;;;;;;0.00;0.00;;;;;;;8.46;100.00;98146.59;4915281;28;20401;-78
2023/10/30 06:46:16;;;;;;;0.00;0.00;;;;;;;8.41;100.00;98152.13;4914675;28;20027;-79
2023/10/30 06:48:42;;;;;;;0.00;0.00;;;;;;;8.36;100.00;98163.13;4913939;28;20079;-77
2023/10/30 06:51:07;;;;;;;0.00;0.00;;;;;;;8.36;100.00;98161.22;4944658;28;20032;-79
2023/10/30 06:53:33;;;;;;;0.00;0.00;;;;;;;8.35;100.00;98164.25;4901827;29;20046;-77
2023/10/30 06:56:00;;;;;;;0.00;0.00;;;;;;;8.39;100.00;98176.94;4926852;29;20061;-78
2023/10/30 06:58:26;;;;;;;0.00;0.00;;;;;;;8.44;100.00;98189.69;4924942;28;20042;-79
2023/10/30 07:00:51;;;;;;;0.00;0.00;;;;;;;8.40;100.00;98177.75;4907963;28;20529;-78
2023/10/30 07:03:17;;;;;;;0.00;0.00;;;;;;;8.34;100.00;98177.06;4914992;29;20039;-78
2023/10/30 07:05:42;;;;;;;0.00;0.00;;;;;;;8.24;100.00;98173.75;4935477;28;20046;-78
2023/10/30 07:08:08;;;;;;;0.00;0.00;;;;;;;8.18;100.00;98176.59;4912692;28;20031;-76
2023/10/30 07:10:35;;;;;;;0.00;0.00;;;;;;;8.23;100.00;98188.47;4927254;29;20049;-78
2023/10/30 07:13:00;;;;;;;0.00;0.00;;;;;;;8.15;100.00;98166.31;4925733;28;20045;-78
2023/10/30 07:15:28;;;;;;;0.00;0.00;;;;;;;8.35;100.00;98188.75;4929499;28;20110;-78
2023/10/30 07:17:55;;;;;;;0.00;0.00;;;;;;;8.35;100.00;98183.31;4937693;28;20047;-77
2023/10/30 07:20:21;;;;;;;0.00;0.00;;;;;;;8.40;100.00;98194.09;4941414;28;20085;-78
2023/10/30 07:22:49;;;;;;;0.00;0.00;;;;;;;8.31;100.00;98164.06;4896973;28;20059;-77
2023/10/30 07:25:17;;;;;;;0.00;0.00;;;;;;;8.42;100.00;98164.63;4917124;28;20027;-75
2023/10/30 07:27:43;;;;;;;0.00;0.00;;;;;;;8.72;100.00;98195.03;4896377;28;20482;-77
2023/10/30 07:30:08;;;;;;;0.00;0.00;;;;;;;8.83;100.00;98201.84;4937324;28;20122;-77
2023/10/30 07:32:34;;;;;;;0.00;0.00;;;;;;;8.93;100.00;98200.00;4913556;28;20485;-76
2023/10/30 07:35:00;;;;;;;0.00;0.00;;;;;;;8.93;100.00;98202.75;4911567;28;20038;-77
2023/10/30 07:37:26;;;;;;;0.00;0.00;;;;;;;8.79;100.00;98187.25;4917679;29;20042;-78
2023/10/30 07:39:52;;;;;;;0.00;0.00;;;;;;;8.63;100.00;98170.47;4946918;28;20031;-77
2023/10/30 07:42:25;;;;;;;0.00;0.00;;;;;;;8.73;100.00;98188.47;4933636;29;20034;-77
2023/10/30 07:44:50;;;;;;;0.10;0.10;;;;;;;8.80;100.00;98202.47;4912568;28;20031;-79
2023/10/30 07:47:16;;;;;;;0.00;0.00;;;;;;;8.77;100.00;98188.66;4925762;28;20051;-78
2023/10/30 07:49:41;;;;;;;0.00;0.00;;;;;;;8.96;100.00;98210.28;4913487;28;20039;-79
2023/10/30 07:52:07;;;;;;;0.00;0.00;;;;;;;9.12;100.00;98222.44;4908585;28;20046;-78
2023/10/30 07:54:37;;;;;;;0.00;0.00;;;;;;;9.04;100.00;98195.94;4923972;29;20561;-78
2023/10/30 07:57:04;;;;;;;0.00;0.00;;;;;;;9.22;100.00;98188.66;4929315;28;20390;-78
2023/10/30 07:59:32;;;;;;;0.00;0.00;;;;;;;9.56;100.00;98223.53;4923909;28;20442;-77
2023/10/30 08:02:00;;;;;;;0.00;0.00;;;;;;;9.67;100.00;98217.78;4937174;28;20026;-78
2023/10/30 08:04:25;;;;;;;0.00;0.00;;;;;;;9.83;100.00;98227.16;4921840;28;20030;-77
2023/10/30 08:06:51;;;;;;;0.00;0.00;;;;;;;10.00;100.00;98231.09;4907240;29;20024;-77
2023/10/30 08:09:16;;;;;;;0.00;0.00;;;;;;;9.99;100.00;98213.09;4949369;28;20385;-83
2023/10/30 08:11:42;;;;;;;0.00;0.00;;;;;;;9.98;100.00;98192.38;4906381;29;20035;-79
2023/10/30 08:14:08;;;;;;;0.00;0.00;;;;;;;10.29;100.00;98206.75;4912503;28;20035;-79
2023/10/30 08:16:34;;;;;;;0.00;0.00;;;;;;;10.94;100.00;98217.94;4926283;28;20643;-80
2023/10/30 08:19:00;;;;;;;0.00;0.00;;;;;;;12.07;100.00;98242.66;4954010;28;20137;-81
2023/10/30 08:21:28;;;;;;;0.00;0.00;;;;;;;13.59;97.96;98217.81;4911770;28;20122;-78
2023/10/30 08:23:54;;;;;;;0.00;0.00;;;;;;;15.41;88.97;98231.22;4920953;29;20424;-73
2023/10/30 08:26:22;;;;;;;0.00;0.00;;;;;;;16.85;79.30;98240.28;4932254;28;20377;-74
2023/10/30 08:28:48;;;;;;;0.00;0.00;;;;;;;18.28;73.33;98252.50;4930256;29;20026;-75
2023/10/30 08:31:24;;;;;;;0.00;0.00;;;;;;;19.62;67.22;98248.75;4944365;28;20043;-75
2023/10/30 08:33:50;;;;;;;0.00;0.00;;;;;;;21.45;60.66;98238.94;4931831;28;20031;-75
2023/10/30 08:36:22;;;;;;;0.00;0.00;;;;;;;21.79;57.01;98260.91;4907604;28;20030;-75
2023/10/30 08:38:47;;;;;;;0.00;0.00;;;;;;;20.90;60.99;98264.91;4924085;28;20023;-75
2023/10/30 08:41:23;;;;;;;0.00;0.00;;;;;;;20.02;63.49;98238.88;4909626;28;20042;-74
2023/10/30 08:43:51;;;;;;;0.00;0.00;;;;;;;19.71;65.07;98252.00;4937098;28;20047;-74
2023/10/30 08:46:26;;;;;;;0.00;0.00;;;;;;;19.14;67.60;98252.13;4934444;28;21289;-75
2023/10/30 08:48:52;;;;;;;0.00;0.00;;;;;;;19.46;67.40;98237.88;4935085;28;20036;-73
2023/10/30 08:51:25;;;;;;;0.00;0.00;;;;;;;19.44;66.21;98237.47;4930966;28;20102;-75
2023/10/30 08:53:56;;;;;;;0.00;0.00;;;;;;;18.82;68.10;98249.69;4900206;28;20046;-74
2023/10/30 08:56:23;;;;;;;0.00;0.00;;;;;;;19.38;69.01;98250.03;4936489;28;20039;-75
2023/10/30 08:58:51;;;;;;;0.00;0.00;;;;;;;21.38;64.43;98246.47;4921005;28;20026;-74
2023/10/30 09:01:27;;;;;;;0.00;0.00;;;;;;;23.77;57.29;98228.28;4935845;28;20142;-75
2023/10/30 09:04:01;;;;;;;0.00;0.00;;;;;;;26.30;51.08;98239.09;4933908;28;20038;-74
2023/10/30 09:06:30;;;;;;;;;;;;;;;28.85;45.67;98264.97;4929869;28;20382;-75
2023/10/30 09:08:55;;;;;;;0.00;0.00;;;;;;;29.62;42.27;98264.47;4931332;29;19910;-75
2023/10/30 09:11:22;;;;;;;0.00;0.00;;;;;;;30.52;39.30;98275.75;4930419;28;20028;-75
2023/10/30 09:13:47;;;;;;;0.00;0.00;;;;;;;30.30;38.60;98245.44;4947397;28;20085;-76
2023/10/30 09:16:12;;;;;;;0.00;0.00;;;;;;;30.81;36.19;98256.63;4928886;28;20027;-75
2023/10/30 09:18:43;;;;;;;0.00;0.00;;;;;;;29.58;34.64;98247.66;4937349;28;20100;-75
2023/10/30 09:21:09;;;;;;;0.00;0.00;;;;;;;29.81;35.38;98251.41;4931655;28;20047;-74
2023/10/30 09:23:34;;;;;;;0.00;0.00;;;;;;;28.82;33.20;98261.03;4916132;29;20351;-76
2023/10/30 09:26:03;;;;;;;0.00;0.00;;;;;;;27.20;35.84;98231.03;4928053;28;20098;-74
2023/10/30 09:28:52;;;;;;;0.00;0.00;;;;;;;25.60;37.78;98232.13;4912065;29;20054;-75
2023/10/30 09:31:59;;;;;;;0.00;0.00;;;;;;;24.41;40.57;98235.41;4918949;28;20398;-73
2023/10/30 09:34:25;;;;;;;0.00;0.00;;;;;;;23.39;43.99;98230.91;4943269;28;20034;-76
2023/10/30 09:39:53;;;;;;;0.00;0.00;;;;;;;22.49;44.68;98224.38;4911572;28;20125;-75
2023/10/30 09:43:07;;;;;;;;;;;;;;;;;;;;;
2023/10/30 09:45:47;;;;;;;;;;;;;;;;;;;;;
2023/10/30 09:48:28;;;;;;;;;;;;;;;;;;;;;
2023/10/30 09:54:20;;;;;;;;;;;;;;;;;;;;;
2023/10/30 09:56:46;;;;;;;0.00;0.00;;;;;;;22.03;49.49;98247.41;4936298;28;20038;-74
2023/10/30 09:59:56;;;;;;;;;;;;;;;;;;;;;
2023/10/30 10:05:23;;;;;;;0.00;0.00;;;;;;;23.05;47.18;98268.44;4933276;28;20055;-75
2023/10/30 10:08:12;;;;;;;0.00;0.00;;;;;;;23.42;47.67;98269.94;4929775;29;20043;-74
2023/10/30 10:12:16;;;;;;;;;;;;;;;;;;;;;
2023/10/30 10:15:09;;;;;;;;;;;;;;;;;;;;;
2023/10/30 10:18:15;;;;;;;;;;;;;;;;;;;;;
2023/10/30 10:20:37;;;;;;;0.00;0.00;;;;;;;30.73;32.61;98238.34;4923566;28;20446;-75
2023/10/30 10:23:36;;;;;;;;;;;;;;;;;;;;;
2023/10/30 10:30:03;;;;;;;0.00;0.00;;;;;;;31.27;29.77;98241.31;4925036;28;20035;-74
2023/10/30 10:32:40;;;;;;;;;;;;;;;;;;;;;
2023/10/30 10:35:45;;;;;;;;;;;;;;;;;;;;;
2023/10/30 10:38:13;;;;;;;;;;;;;;;33.38;28.69;98292.53;4930095;28;20030;-73
2023/10/30 10:41:13;;;;;;;0.00;0.00;;;;;;;34.60;26.65;98303.81;4914253;28;19962;-74
2023/10/30 10:51:26;;;;;;;0.00;0.00;;;;;;;38.60;21.55;98239.91;4926735;28;20062;-74
2023/10/30 10:54:58;;;;;;;;;;;;;;;;;;;;;
2023/10/30 10:57:57;;;;;;;;;;;;;;;;;;;;;
2023/10/30 11:01:17;;;;;;;;;;;;;;;;;;;;;
2023/10/30 11:08:06;;;;;;;;;;;;;;;;;;;;;
2023/10/30 11:11:28;;;;;;;0.00;0.00;;;;;;;34.56;24.21;98240.78;4896023;29;20390;-73
2023/10/30 11:17:28;;;;;;;0.00;0.00;;;;;;;34.91;23.91;98257.25;4904437;29;20059;-74
2023/10/30 11:20:24;;;;;;;0.00;0.00;;;;;;;35.56;23.53;98239.63;4890647;29;20043;-73
2023/10/30 11:23:44;;;;;;;0.00;0.00;;;;;;;36.68;23.81;98234.06;4890010;29;20101;-74
2023/10/30 11:32:36;;;;;;;0.00;0.00;;;;;;;29.58;29.62;98219.50;4882783;29;20041;-74
2023/10/30 11:35:03;;;;;;;;;;;;;;;29.82;29.87;98255.78;4865022;29;20064;-76
2023/10/30 11:37:32;;;;;;;0.00;0.00;;;;;;;31.17;29.24;98197.34;4882776;29;20252;-73
2023/10/30 11:40:05;;;;;;;0.00;0.00;;;;;;;31.91;28.03;98226.00;4901123;28;20046;-76
2023/10/30 11:42:34;;;;;;;0.00;0.00;;;;;;;30.45;29.28;98224.00;4931829;28;20035;-75
2023/10/30 11:45:22;;;;;;;0.00;0.00;;;;;;;30.26;29.88;98199.69;4943525;28;20052;-76
2023/10/30 11:48:07;;;;;;;0.00;0.00;;;;;;;29.27;30.98;98211.59;4917104;28;20023;-75
2023/10/30 11:50:43;;;;;;;0.00;0.00;;;;;;;27.81;32.19;98195.28;4925957;28;20047;-75
2023/10/30 11:53:24;;;;;;;0.00;0.00;;;;;;;26.39;34.58;98223.75;4943085;28;20055;-76
2023/10/30 11:56:24;;;;;;;;;;;;;;;;;;;;;
2023/10/30 11:58:50;;;;;;;0.00;0.00;;;;;;;24.28;37.83;98203.63;4949990;28;20031;-77
2023/10/30 12:01:24;;;;;;;0.00;0.00;;;;;;;24.34;38.23;98221.50;4930235;29;20118;-79
2023/10/30 12:04:19;;;;;;;0.00;0.00;;;;;;;25.08;37.10;98235.94;4927071;28;20032;-77
2023/10/30 12:06:56;;;;;;;0.00;0.00;;;;;;;25.59;36.83;98224.94;4920974;28;20039;-75
2023/10/30 12:09:31;;;;;;;0.00;0.00;;;;;;;24.37;37.51;98187.97;4925511;29;20069;-74
2023/10/30 12:12:05;;;;;;;0.00;0.00;;;;;;;23.82;38.54;98175.66;4924123;28;20027;-75
2023/10/30 12:14:40;;;;;;;0.00;0.00;;;;;;;25.91;37.61;98217.28;4926023;28;20476;-75
2023/10/30 12:17:21;;;;;;;;;;;;;;;;;;;;;
2023/10/30 12:19:49;;;;;;;0.00;0.00;;;;;;;28.10;33.37;98226.28;4930206;28;20393;-74
2023/10/30 12:22:15;;;;;;;0.00;0.00;;;;;;;26.74;33.95;98205.50;4927574;29;20030;-75
2023/10/30 12:24:49;;;;;;;0.00;0.00;;;;;;;25.06;36.03;98220.81;4927188;29;21561;-74
2023/10/30 12:27:26;;;;;;;0.00;0.00;;;;;;;23.40;38.83;98216.56;4927148;28;20046;-73
2023/10/30 12:29:55;;;;;;;0.00;0.00;;;;;;;22.48;40.37;98220.00;4937572;28;20105;-74
2023/10/30 12:32:32;;;;;;;0.00;0.00;;;;;;;21.90;41.88;98219.22;4922094;28;20114;-73
2023/10/30 12:35:16;;;;;;;0.00;0.00;;;;;;;21.32;43.09;98178.53;4922971;28;20019;-74
2023/10/30 12:37:53;;;;;;;0.00;0.00;;;;;;;21.34;43.18;98213.09;4926044;29;20078;-77
2023/10/30 12:43:52;;;;;;;0.00;0.00;;;;;;;21.00;44.35;98171.69;4927759;28;20050;-75
2023/10/30 12:46:17;;;;;;;0.00;0.00;;;;;;;21.17;45.17;98211.06;4922319;28;20031;-74
2023/10/30 12:48:42;;;;;;;0.00;0.00;;;;;;;21.50;45.17;98220.31;4885036;28;20587;-75
2023/10/30 12:51:10;;;;;;;0.00;0.00;;;;;;;21.72;44.30;98227.50;4910203;28;20036;-73
2023/10/30 12:53:36;;;;;;;0.00;0.00;;;;;;;21.17;44.90;98216.59;4908636;28;20554;-74